Time;durP1;ratioP1;P1;durP2;ratioP2;P2;SDS_P1;SDS_P2;PMS_P1;PMS_P2;Temp;Humidity;BMP_temperature;BMP_pressure;BME280_temperature;BME280_humidity;BME280_pressure;Samples;Min_cycle;Max_cycle;Signal;HPM_P1;HPM_P2
2021/03/10 00:00:35;;;;;;;20.85;12.00;;;;;;;4.35;61.50;101791.56;10215774;28;20459;-67
2021/03/10 00:05:31;;;;;;;19.95;11.23;;;;;;;4.33;60.63;101791.00;10209452;28;20045;-65
2021/03/10 00:10:28;;;;;;;18.98;11.52;;;;;;;4.30;60.65;101791.50;10222446;28;20083;-69
2021/03/10 00:15:23;;;;;;;19.63;11.73;;;;;;;4.27;60.97;101797.44;10225016;28;20041;-69
2021/03/10 00:20:19;;;;;;;21.10;11.95;;;;;;;4.30;60.58;101807.75;10212830;28;20054;-70
2021/03/10 00:25:17;;;;;;;17.77;11.55;;;;;;;4.27;61.44;101805.56;10229851;28;20052;-66
2021/03/10 00:30:15;;;;;;;19.17;11.85;;;;;;;4.28;62.05;101803.66;10208942;28;20061;-66
2021/03/10 00:35:11;;;;;;;21.70;13.20;;;;;;;4.26;61.97;101795.78;10223774;28;20095;-67
2021/03/10 00:40:08;;;;;;;20.80;12.25;;;;;;;4.13;61.24;101796.13;10218969;28;20049;-66
2021/03/10 00:45:05;;;;;;;19.45;11.20;;;;;;;4.08;61.85;101793.34;10223910;28;20110;-65
2021/03/10 00:50:01;;;;;;;20.33;11.00;;;;;;;4.13;61.22;101796.13;10217959;28;20068;-69
2021/03/10 00:54:57;;;;;;;22.95;13.25;;;;;;;4.16;60.96;101795.66;10221008;28;20075;-71
2021/03/10 00:59:52;;;;;;;21.42;12.75;;;;;;;4.10;60.67;101796.63;10218267;28;20044;-68
2021/03/10 01:04:48;;;;;;;21.45;12.65;;;;;;;4.13;59.37;101798.81;10223543;28;20049;-66
2021/03/10 01:09:44;;;;;;;19.90;11.82;;;;;;;4.13;61.27;101801.53;10221768;28;20053;-67
2021/03/10 01:14:41;;;;;;;21.33;11.95;;;;;;;4.10;61.79;101802.84;10232408;28;20054;-68
2021/03/10 01:19:37;;;;;;;19.33;11.77;;;;;;;4.04;61.44;101792.19;10214495;28;20073;-67
2021/03/10 01:24:33;;;;;;;20.50;12.50;;;;;;;4.04;61.49;101786.78;10224103;28;20050;-68
2021/03/10 01:29:29;;;;;;;23.13;11.63;;;;;;;3.97;59.75;101787.78;10220672;28;20045;-70
2021/03/10 01:34:25;;;;;;;20.35;11.45;;;;;;;3.96;58.68;101788.84;10221550;28;20891;-68
2021/03/10 01:39:21;;;;;;;20.83;13.00;;;;;;;3.87;58.15;101795.72;10221988;28;20056;-66
2021/03/10 01:44:17;;;;;;;18.17;11.32;;;;;;;3.97;59.28;101798.63;10222618;28;20504;-65
2021/03/10 01:49:13;;;;;;;17.38;10.93;;;;;;;3.99;59.45;101785.66;10222640;28;20057;-66
2021/03/10 01:54:09;;;;;;;17.70;11.23;;;;;;;4.01;59.23;101782.69;10217404;28;20053;-66
2021/03/10 01:59:06;;;;;;;20.88;12.85;;;;;;;3.97;61.07;101787.78;10224496;28;20140;-65
2021/03/10 02:04:06;;;;;;;20.25;12.38;;;;;;;3.96;60.93;101780.72;10211507;28;20502;-67
2021/03/10 02:09:11;;;;;;;19.75;11.32;;;;;;;3.90;61.26;101784.44;10231651;28;20100;-67
2021/03/10 02:14:27;;;;;;;22.50;12.52;;;;;;;3.90;58.68;101792.56;10213377;28;20064;-68
2021/03/10 02:19:52;;;;;;;22.65;12.00;;;;;;;3.86;60.73;101788.69;10218606;28;20049;-67
2021/03/10 02:25:33;;;;;;;18.08;10.88;;;;;;;3.77;60.63;101798.28;10215022;28;20049;-65
2021/03/10 02:30:34;;;;;;;19.63;11.82;;;;;;;3.66;58.68;101788.34;10205603;28;20065;-65
2021/03/10 02:35:31;;;;;;;20.30;10.65;;;;;;;3.64;58.83;101794.00;10215841;28;20136;-65
2021/03/10 02:40:30;;;;;;;19.77;10.77;;;;;;;3.62;58.68;101789.91;10213706;28;20077;-66
2021/03/10 02:45:27;;;;;;;21.13;10.48;;;;;;;3.63;57.98;101780.75;10215673;28;20049;-67
2021/03/10 02:50:24;;;;;;;17.58;10.40;;;;;;;3.62;57.97;101787.19;10209942;28;20110;-66
2021/03/10 02:55:20;;;;;;;20.30;10.40;;;;;;;3.65;57.76;101792.13;10224234;28;20092;-65
2021/03/10 03:00:19;;;;;;;17.95;10.18;;;;;;;3.55;59.20;101785.50;10199264;28;20507;-67
2021/03/10 03:05:15;;;;;;;19.90;10.20;;;;;;;3.57;60.21;101788.78;10215961;28;20077;-70
2021/03/10 03:10:19;;;;;;;17.90;9.70;;;;;;;3.52;59.59;101780.56;10207728;28;20069;-67
2021/03/10 03:15:21;;;;;;;14.73;9.20;;;;;;;3.50;59.71;101782.69;10216198;28;20049;-68
2021/03/10 03:20:21;;;;;;;18.60;10.32;;;;;;;3.44;59.90;101782.84;10222491;28;20073;-68
2021/03/10 03:25:28;;;;;;;17.92;10.90;;;;;;;3.40;59.37;101793.31;10218082;28;20052;-65
2021/03/10 03:30:25;;;;;;;14.85;8.93;;;;;;;3.27;59.77;101782.81;10225098;28;20167;-69
2021/03/10 03:35:22;;;;;;;16.25;9.65;;;;;;;3.30;59.86;101779.66;10222484;28;20049;-67
2021/03/10 03:40:22;;;;;;;16.98;10.15;;;;;;;3.26;60.29;101768.47;10218439;28;20041;-67
2021/03/10 03:45:21;;;;;;;16.90;9.25;;;;;;;3.19;59.21;101769.69;10222620;28;20410;-66
2021/03/10 03:50:17;;;;;;;16.30;8.73;;;;;;;3.19;59.12;101758.91;10227268;28;20584;-69
2021/03/10 03:55:14;;;;;;;18.20;9.90;;;;;;;2.95;59.70;101748.19;10213835;28;20048;-67
2021/03/10 04:00:15;;;;;;;16.75;10.02;;;;;;;2.87;59.76;101745.88;10223570;28;20045;-67
2021/03/10 04:05:12;;;;;;;16.98;9.05;;;;;;;2.75;59.69;101754.00;10218780;28;20559;-69
2021/03/10 04:10:08;;;;;;;14.93;8.43;;;;;;;2.60;59.78;101754.53;10203517;28;20045;-67
2021/03/10 04:15:05;;;;;;;16.83;8.02;;;;;;;2.56;60.63;101749.84;10216061;28;20151;-68
2021/03/10 04:20:01;;;;;;;15.82;8.75;;;;;;;2.51;60.82;101758.66;10216617;28;20108;-68
2021/03/10 04:24:57;;;;;;;16.08;8.70;;;;;;;2.31;60.31;101765.25;10217768;28;20275;-67
2021/03/10 04:29:53;;;;;;;14.95;8.30;;;;;;;2.26;60.50;101767.84;10215194;28;20050;-68
2021/03/10 04:34:49;;;;;;;14.10;7.55;;;;;;;2.20;60.71;101768.78;10220897;28;20091;-69
2021/03/10 04:39:45;;;;;;;14.00;8.10;;;;;;;2.22;60.87;101772.06;10221966;28;20052;-68
2021/03/10 04:44:41;;;;;;;14.05;7.78;;;;;;;2.13;61.28;101768.09;10213328;28;20050;-67
2021/03/10 04:49:37;;;;;;;15.23;7.03;;;;;;;2.05;61.37;101776.56;10224674;28;20047;-67
2021/03/10 04:54:34;;;;;;;16.20;7.38;;;;;;;1.91;61.01;101780.53;10225288;28;20138;-67
2021/03/10 04:59:30;;;;;;;14.27;8.23;;;;;;;1.87;61.06;101780.97;10220577;28;20073;-69
2021/03/10 05:04:30;;;;;;;14.60;7.60;;;;;;;1.73;60.96;101778.75;10225576;28;20088;-66
2021/03/10 05:09:26;;;;;;;16.02;7.45;;;;;;;1.61;61.52;101770.66;10221950;28;20052;-67
2021/03/10 05:14:22;;;;;;;12.02;7.30;;;;;;;1.55;61.96;101766.19;10219777;28;20052;-69
2021/03/10 05:19:18;;;;;;;14.90;8.40;;;;;;;1.49;62.16;101767.13;10233252;28;20091;-68
2021/03/10 05:24:14;;;;;;;13.70;7.70;;;;;;;1.46;61.87;101763.00;10223752;28;20503;-67
2021/03/10 05:29:11;;;;;;;13.48;7.25;;;;;;;1.28;61.55;101772.00;10216509;28;20124;-66
2021/03/10 05:34:07;;;;;;;12.68;6.82;;;;;;;1.27;61.90;101770.31;10227330;28;20049;-70
2021/03/10 05:39:04;;;;;;;12.90;7.18;;;;;;;1.31;61.54;101768.00;10225188;28;20045;-67
2021/03/10 05:44:01;;;;;;;12.95;7.30;;;;;;;1.22;62.58;101759.44;10225121;28;20045;-66
2021/03/10 05:48:57;;;;;;;11.73;6.63;;;;;;;1.25;62.09;101762.50;10211577;28;20095;-66
2021/03/10 05:53:57;;;;;;;14.55;6.32;;;;;;;1.26;61.96;101768.69;10222843;28;20073;-66
2021/03/10 05:59:04;;;;;;;10.27;6.05;;;;;;;1.28;60.69;101782.75;10223529;28;20115;-66
2021/03/10 06:04:02;;;;;;;11.02;5.75;;;;;;;1.18;60.96;101783.28;10224957;28;20530;-66
2021/03/10 06:09:09;;;;;;;10.65;5.90;;;;;;;1.34;60.87;101776.44;10220109;28;20096;-68
2021/03/10 06:14:15;;;;;;;14.35;6.25;;;;;;;1.46;59.88;101785.41;10221345;28;20052;-66
2021/03/10 06:19:11;;;;;;;14.30;6.00;;;;;;;1.57;60.04;101788.34;10225808;28;20072;-66
2021/03/10 06:24:07;;;;;;;12.30;5.82;;;;;;;1.70;57.71;101782.75;10218557;28;20049;-67
2021/03/10 06:29:14;;;;;;;10.43;5.50;;;;;;;1.79;56.72;101784.03;10220057;28;20134;-67
2021/03/10 06:34:12;;;;;;;12.77;6.65;;;;;;;1.80;58.27;101782.16;10220685;28;20049;-68
2021/03/10 06:39:13;;;;;;;11.55;5.55;;;;;;;1.79;56.28;101784.03;10220450;28;20045;-68
2021/03/10 06:44:26;;;;;;;13.40;7.07;;;;;;;1.88;56.70;101787.19;10218190;28;20115;-67
2021/03/10 06:49:27;;;;;;;16.13;6.30;;;;;;;1.93;55.74;101778.41;10217286;28;22216;-68
2021/03/10 06:54:25;;;;;;;11.82;6.38;;;;;;;1.97;55.42;101796.59;10214884;28;20131;-66
2021/03/10 06:59:21;;;;;;;11.70;5.50;;;;;;;1.98;55.60;101802.81;10226158;28;20499;-66
2021/03/10 07:04:17;;;;;;;12.60;6.00;;;;;;;2.02;54.99;101809.38;10223903;28;20100;-69
2021/03/10 07:09:14;;;;;;;11.80;5.90;;;;;;;2.11;55.81;101810.66;10220435;28;20573;-68
2021/03/10 07:14:13;;;;;;;12.82;6.45;;;;;;;2.15;55.50;101803.75;10212495;28;20060;-67
2021/03/10 07:19:10;;;;;;;11.93;6.60;;;;;;;2.21;55.27;101819.00;10224962;28;20046;-67
2021/03/10 07:24:15;;;;;;;13.25;6.38;;;;;;;2.36;55.82;101820.41;10219758;28;20056;-66
2021/03/10 07:29:13;;;;;;;13.02;6.45;;;;;;;2.35;55.21;101813.38;10221318;28;20041;-66
2021/03/10 07:34:10;;;;;;;12.23;5.78;;;;;;;2.52;55.33;101815.09;10219194;28;20084;-66
2021/03/10 07:39:27;;;;;;;11.20;6.47;;;;;;;2.65;54.89;101808.63;10217365;28;20052;-65
2021/03/10 07:44:25;;;;;;;12.43;7.07;;;;;;;2.63;55.36;101809.94;10222635;28;20099;-66
2021/03/10 07:49:23;;;;;;;16.05;6.88;;;;;;;2.69;55.40;101809.81;10221051;28;20037;-67
2021/03/10 07:54:27;;;;;;;11.88;7.25;;;;;;;2.80;55.43;101816.22;10224675;28;20054;-65
2021/03/10 07:59:23;;;;;;;14.75;8.27;;;;;;;2.90;55.70;101812.91;10232497;28;20136;-68
2021/03/10 08:04:19;;;;;;;15.30;7.72;;;;;;;3.06;55.44;101803.22;10228856;28;20408;-66
2021/03/10 08:09:18;;;;;;;14.02;8.05;;;;;;;3.20;55.46;101798.34;10242906;28;20079;-62
2021/03/10 08:14:17;;;;;;;17.23;9.18;;;;;;;3.30;55.16;101817.50;10245327;28;20560;-67
2021/03/10 08:19:20;;;;;;;16.80;8.98;;;;;;;3.28;55.57;101806.09;10246057;28;20468;-67
2021/03/10 08:24:17;;;;;;;16.38;9.85;;;;;;;3.53;56.22;101806.53;10253895;28;20045;-68
2021/03/10 08:29:13;;;;;;;17.45;9.05;;;;;;;3.66;55.31;101812.69;10237981;28;20095;-68
2021/03/10 08:34:10;;;;;;;17.40;9.98;;;;;;;3.52;55.75;101818.41;10256681;28;20056;-68
2021/03/10 08:39:13;;;;;;;18.67;10.43;;;;;;;3.56;55.58;101818.75;10236965;28;20095;-68
2021/03/10 08:44:10;;;;;;;17.90;9.40;;;;;;;3.47;56.74;101815.63;10232789;28;20049;-69
2021/03/10 08:49:36;;;;;;;24.13;10.45;;;;;;;3.72;56.35;101817.13;10250406;28;20041;-68
2021/03/10 08:54:42;;;;;;;17.88;10.05;;;;;;;3.79;56.02;101806.97;10237216;28;20077;-68
2021/03/10 08:59:39;;;;;;;17.70;9.77;;;;;;;3.93;56.65;101802.88;10250457;28;20046;-68
2021/03/10 09:04:36;;;;;;;18.25;10.63;;;;;;;4.04;56.75;101781.38;10256656;28;20045;-67
2021/03/10 09:09:34;;;;;;;20.13;11.10;;;;;;;4.12;56.97;101772.84;10235074;28;20042;-69
2021/03/10 09:14:33;;;;;;;19.65;11.82;;;;;;;4.23;57.81;101769.22;10237079;28;20059;-70
2021/03/10 09:19:48;;;;;;;21.52;11.70;;;;;;;4.45;57.63;101780.06;10238709;28;20063;-67
2021/03/10 09:25:02;;;;;;;22.77;12.60;;;;;;;4.49;58.39;101767.66;10237926;28;20160;-68
2021/03/10 09:30:03;;;;;;;24.17;13.50;;;;;;;4.48;58.39;101770.63;10245204;28;20091;-70
2021/03/10 09:34:59;;;;;;;17.77;11.18;;;;;;;4.68;58.74;101751.09;10230998;28;20053;-70
2021/03/10 09:39:56;;;;;;;21.67;12.25;;;;;;;4.73;59.05;101760.09;10238937;28;20519;-67
2021/03/10 09:44:55;;;;;;;22.38;12.52;;;;;;;4.79;59.60;101761.81;10236892;28;20071;-65
2021/03/10 09:49:54;;;;;;;23.40;13.40;;;;;;;4.71;60.50;101746.00;10231863;28;20049;-67
2021/03/10 09:54:52;;;;;;;23.98;13.20;;;;;;;4.86;60.32;101753.47;10230234;28;20161;-65
2021/03/10 09:59:49;;;;;;;26.90;13.50;;;;;;;5.10;59.99;101745.88;10233463;28;20112;-67
2021/03/10 10:04:59;;;;;;;28.50;13.60;;;;;;;5.06;59.90;101739.34;10238581;28;20124;-67
2021/03/10 10:09:56;;;;;;;28.20;15.80;;;;;;;5.12;60.97;101738.28;10235924;28;20048;-67
2021/03/10 10:15:10;;;;;;;;;;;;;;;5.20;60.58;101729.72;10233826;28;20057;-66
2021/03/10 10:20:07;;;;;;;29.15;15.20;;;;;;;5.38;60.89;101735.81;10231974;28;19925;-67
2021/03/10 10:25:05;;;;;;;28.05;15.90;;;;;;;5.36;61.37;101729.84;10231321;28;20071;-65
2021/03/10 10:30:02;;;;;;;30.60;17.85;;;;;;;5.83;61.59;101731.84;10225410;28;20128;-66
2021/03/10 10:34:58;;;;;;;36.70;20.45;;;;;;;5.88;62.82;101723.72;10222700;28;20056;-66
2021/03/10 10:39:54;;;;;;;35.35;20.50;;;;;;;6.04;62.65;101717.34;10224800;28;20044;-65
2021/03/10 10:44:50;;;;;;;35.97;20.25;;;;;;;5.90;63.57;101710.72;10234995;28;20136;-66
2021/03/10 10:49:47;;;;;;;38.08;22.02;;;;;;;6.03;63.27;101693.97;10233430;28;20064;-66
2021/03/10 10:54:45;;;;;;;41.88;21.95;;;;;;;6.01;63.46;101701.59;10234413;28;20045;-65
2021/03/10 10:59:41;;;;;;;40.40;23.63;;;;;;;5.91;64.58;101705.00;10232263;28;20115;-66
2021/03/10 11:04:38;;;;;;;43.70;23.40;;;;;;;6.03;64.69;101704.84;10235777;28;20060;-65
2021/03/10 11:09:39;;;;;;;43.72;23.85;;;;;;;6.27;64.42;101699.00;10238024;28;20046;-68
2021/03/10 11:14:39;;;;;;;42.78;22.45;;;;;;;6.45;63.63;101690.38;10223425;28;20463;-66
2021/03/10 11:19:36;;;;;;;36.40;20.40;;;;;;;6.41;61.96;101692.00;10223717;28;20041;-66
2021/03/10 11:24:34;;;;;;;41.05;22.67;;;;;;;6.45;62.60;101689.56;10222346;28;20085;-66
2021/03/10 11:29:30;;;;;;;37.80;21.13;;;;;;;6.60;62.03;101686.09;10229315;28;20056;-66
2021/03/10 11:34:28;;;;;;;32.42;18.35;;;;;;;6.27;60.43;101688.94;10230338;28;20563;-67
2021/03/10 11:39:24;;;;;;;35.38;19.77;;;;;;;6.45;61.14;101682.25;10234371;28;20045;-66
2021/03/10 11:44:20;;;;;;;39.22;22.10;;;;;;;6.31;62.42;101678.34;10237066;28;20052;-66
2021/03/10 11:49:16;;;;;;;36.33;20.67;;;;;;;6.45;61.38;101671.38;10233810;28;20056;-66
2021/03/10 11:54:12;;;;;;;40.35;22.50;;;;;;;6.64;61.46;101665.44;10237565;28;20084;-66
2021/03/10 11:59:08;;;;;;;35.05;20.48;;;;;;;6.46;61.05;101670.28;10234113;28;20425;-66
2021/03/10 12:04:04;;;;;;;32.15;19.45;;;;;;;6.34;60.77;101672.41;10227701;28;20510;-68
2021/03/10 12:09:00;;;;;;;28.60;16.50;;;;;;;6.55;58.47;101658.91;10228533;28;20045;-68
2021/03/10 12:13:56;;;;;;;28.05;17.90;;;;;;;6.48;57.79;101657.25;10230218;28;20450;-67
2021/03/10 12:18:52;;;;;;;34.22;20.30;;;;;;;6.67;58.18;101660.28;10238614;28;20049;-67
2021/03/10 12:23:49;;;;;;;43.90;27.00;;;;;;;6.93;57.77;101652.97;10228447;28;20160;-67
2021/03/10 12:28:47;;;;;;;27.40;16.27;;;;;;;7.22;55.85;101655.19;10232869;28;20041;-67
2021/03/10 12:33:43;;;;;;;28.02;18.33;;;;;;;7.45;54.58;101625.75;10218496;28;20045;-68
2021/03/10 12:38:40;;;;;;;33.83;20.75;;;;;;;8.43;52.16;101613.47;10221894;28;20060;-69
2021/03/10 12:43:36;;;;;;;28.33;17.75;;;;;;;9.33;51.10;101587.69;10223309;28;20041;-67
2021/03/10 12:48:33;;;;;;;23.55;15.90;;;;;;;10.39;48.03;101578.50;10231544;28;20049;-69
2021/03/10 12:53:29;;;;;;;21.35;13.88;;;;;;;10.57;46.54;101560.47;10223342;28;20103;-66
2021/03/10 12:58:25;;;;;;;22.30;14.07;;;;;;;10.66;44.31;101547.75;10228912;28;20403;-67
2021/03/10 13:03:21;;;;;;;19.65;13.38;;;;;;;11.58;42.43;101540.66;10230890;28;20046;-68
2021/03/10 13:08:17;;;;;;;19.25;13.23;;;;;;;10.52;42.51;101536.75;10235824;28;20132;-68
2021/03/10 13:13:13;;;;;;;22.63;13.80;;;;;;;9.61;44.81;101541.53;10219368;28;20396;-68
2021/03/10 13:18:10;;;;;;;22.88;14.77;;;;;;;10.33;44.20;101522.31;10220649;28;20080;-68
2021/03/10 13:23:06;;;;;;;19.40;13.13;;;;;;;10.32;43.38;101528.88;10211104;28;20049;-65
2021/03/10 13:28:03;;;;;;;23.52;14.30;;;;;;;10.20;41.24;101506.63;10216526;28;20051;-65
2021/03/10 13:32:59;;;;;;;20.92;13.60;;;;;;;10.18;42.99;101504.16;10227892;28;20458;-65
2021/03/10 13:37:55;;;;;;;24.45;14.30;;;;;;;9.88;42.40;101506.22;10232080;28;20052;-65
2021/03/10 13:42:51;;;;;;;20.05;13.30;;;;;;;10.06;42.31;101485.47;10223114;28;20117;-63
2021/03/10 13:47:58;;;;;;;21.30;12.77;;;;;;;10.23;43.00;101468.56;10221226;28;20485;-65
2021/03/10 13:52:55;;;;;;;18.98;13.60;;;;;;;10.60;41.94;101477.03;10225938;28;20128;-65
2021/03/10 13:57:51;;;;;;;20.25;12.98;;;;;;;10.08;41.86;101472.34;10228210;28;20075;-66
2021/03/10 14:02:47;;;;;;;22.25;14.23;;;;;;;10.21;42.45;101459.88;10223206;28;20061;-66
2021/03/10 14:07:45;;;;;;;20.27;13.30;;;;;;;9.98;43.21;101458.00;10219447;28;20404;-66
2021/03/10 14:12:42;;;;;;;20.17;13.55;;;;;;;9.67;43.55;101452.97;10227664;28;20091;-65
2021/03/10 14:17:38;;;;;;;22.50;13.82;;;;;;;9.48;43.91;101442.03;10231846;28;20049;-65
2021/03/10 14:22:35;;;;;;;22.92;14.38;;;;;;;8.91;43.77;101455.53;10227370;28;20073;-67
2021/03/10 14:27:31;;;;;;;22.35;14.52;;;;;;;8.34;46.34;101462.53;10227247;28;20495;-69
2021/03/10 14:32:28;;;;;;;24.65;15.50;;;;;;;8.29;46.73;101451.69;10230805;28;20147;-69
2021/03/10 14:37:28;;;;;;;21.55;14.95;;;;;;;8.29;47.25;101443.53;10220261;28;20480;-69
2021/03/10 14:42:24;;;;;;;24.33;14.32;;;;;;;8.18;47.40;101438.13;10220456;28;20447;-69
2021/03/10 14:47:20;;;;;;;24.55;15.20;;;;;;;8.09;48.47;101423.50;10221158;28;20045;-69
2021/03/10 14:52:17;;;;;;;24.52;15.82;;;;;;;8.07;47.99;101422.97;10221342;28;20060;-69
2021/03/10 14:57:13;;;;;;;23.50;14.70;;;;;;;7.87;49.01;101425.84;10222154;28;20041;-68
2021/03/10 15:02:09;;;;;;;26.55;14.60;;;;;;;7.82;49.51;101423.97;10211507;28;20046;-67
2021/03/10 15:07:05;;;;;;;24.95;15.52;;;;;;;7.35;50.71;101423.38;10225463;28;20172;-68
2021/03/10 15:12:01;;;;;;;22.88;14.55;;;;;;;7.49;50.48;101417.31;10222858;28;20052;-69
2021/03/10 15:16:57;;;;;;;25.23;15.35;;;;;;;7.35;51.18;101425.28;10222674;28;20459;-70
2021/03/10 15:21:54;;;;;;;25.67;15.40;;;;;;;7.26;51.89;101416.88;10223732;28;20502;-69
2021/03/10 15:26:50;;;;;;;22.67;14.30;;;;;;;7.34;51.89;101404.63;10223985;28;20149;-67
2021/03/10 15:31:46;;;;;;;25.80;15.77;;;;;;;7.24;52.25;101402.75;10226452;28;20052;-68
2021/03/10 15:36:44;;;;;;;26.20;15.60;;;;;;;7.15;52.99;101399.00;10213434;28;20057;-67
2021/03/10 15:41:41;;;;;;;28.70;16.77;;;;;;;7.23;53.01;101406.56;10229491;28;20438;-67
2021/03/10 15:46:37;;;;;;;27.35;17.83;;;;;;;7.11;53.06;101396.00;10219926;28;20502;-68
2021/03/10 15:51:33;;;;;;;25.85;16.85;;;;;;;7.21;53.46;101392.41;10218524;28;20057;-68
2021/03/10 15:56:33;;;;;;;30.52;18.23;;;;;;;7.13;53.63;101390.28;10218313;28;20103;-74
2021/03/10 16:01:30;;;;;;;28.52;17.65;;;;;;;7.20;53.86;101379.94;10212624;28;20956;-67
2021/03/10 16:06:26;;;;;;;25.40;16.33;;;;;;;7.16;53.63;101378.84;10216450;28;20136;-68
2021/03/10 16:11:22;;;;;;;29.15;18.00;;;;;;;7.14;54.44;101372.88;10228461;28;20458;-68
2021/03/10 16:16:18;;;;;;;28.08;18.17;;;;;;;7.02;55.07;101377.81;10221850;28;20040;-68
2021/03/10 16:21:14;;;;;;;28.67;18.33;;;;;;;6.76;55.51;101369.75;10221075;28;20415;-68
2021/03/10 16:26:10;;;;;;;30.63;18.10;;;;;;;6.97;55.92;101366.97;10229621;28;20049;-67
2021/03/10 16:31:10;;;;;;;27.63;18.00;;;;;;;6.91;56.30;101372.41;10221700;28;20834;-69
2021/03/10 16:36:07;;;;;;;32.25;20.13;;;;;;;6.73;57.74;101359.44;10214339;28;20088;-69
2021/03/10 16:41:03;;;;;;;31.75;19.23;;;;;;;6.74;58.91;101366.50;10216324;28;20045;-69
2021/03/10 16:46:00;;;;;;;30.33;19.25;;;;;;;6.61;59.23;101345.31;10230006;28;20048;-68
2021/03/10 16:50:57;;;;;;;31.75;20.85;;;;;;;6.56;59.46;101337.19;10223020;28;20056;-69
2021/03/10 16:55:54;;;;;;;30.42;19.40;;;;;;;6.35;60.21;101322.84;10232508;28;20049;-69
2021/03/10 17:00:50;;;;;;;30.23;19.88;;;;;;;6.24;60.24;101298.44;10223220;28;20060;-67
2021/03/10 17:05:48;;;;;;;30.35;20.10;;;;;;;6.41;60.18;101298.13;10213542;28;20053;-68
2021/03/10 17:10:45;;;;;;;34.17;20.67;;;;;;;6.45;60.42;101296.47;10233313;28;20576;-69
2021/03/10 17:15:41;;;;;;;28.48;19.63;;;;;;;6.41;59.65;101292.69;10227598;28;20142;-68
2021/03/10 17:20:41;;;;;;;30.85;20.63;;;;;;;6.47;60.19;101298.91;10221822;28;20053;-66
2021/03/10 17:25:37;;;;;;;30.77;19.35;;;;;;;6.53;58.95;101287.75;10216593;28;20103;-66
2021/03/10 17:30:41;;;;;;;30.25;19.88;;;;;;;6.52;59.24;101283.41;10240176;28;20458;-69
2021/03/10 17:35:37;;;;;;;32.08;19.10;;;;;;;6.44;59.71;101275.81;10231222;28;20053;-68
2021/03/10 17:40:34;;;;;;;30.00;19.73;;;;;;;6.25;59.71;101270.16;10220315;28;20064;-68
2021/03/10 17:45:31;;;;;;;32.10;21.13;;;;;;;6.37;59.30;101274.50;10219427;28;20457;-69
2021/03/10 17:50:28;;;;;;;29.80;19.67;;;;;;;6.35;58.89;101250.31;10222476;28;20113;-70
2021/03/10 17:55:24;;;;;;;36.83;20.85;;;;;;;6.30;58.88;101247.63;10227489;28;20049;-68
2021/03/10 18:00:21;;;;;;;33.58;21.35;;;;;;;6.30;59.43;101239.47;10239455;28;20085;-67
2021/03/10 18:05:17;;;;;;;32.17;20.13;;;;;;;6.35;58.78;101220.44;10232121;28;20053;-68
2021/03/10 18:10:14;;;;;;;31.50;20.55;;;;;;;6.26;59.73;101220.19;10212237;28;20049;-68
2021/03/10 18:15:11;;;;;;;31.52;19.42;;;;;;;6.26;59.70;101205.81;10224337;28;20145;-68
2021/03/10 18:20:09;;;;;;;32.85;20.50;;;;;;;6.26;59.58;101203.91;10209695;28;20049;-67
2021/03/10 18:25:06;;;;;;;32.72;20.13;;;;;;;6.19;59.65;101183.56;10223547;28;20045;-69
2021/03/10 18:30:03;;;;;;;30.15;18.83;;;;;;;6.20;59.76;101182.50;10219176;28;20547;-69
2021/03/10 18:35:00;;;;;;;29.02;19.65;;;;;;;6.16;59.53;101181.41;10218090;28;20046;-65
2021/03/10 18:39:56;;;;;;;34.55;21.40;;;;;;;6.19;59.70;101165.38;10218188;28;20041;-69
2021/03/10 18:44:52;;;;;;;33.75;20.00;;;;;;;6.11;60.35;101158.63;10230131;28;20053;-67
2021/03/10 18:49:48;;;;;;;33.20;20.30;;;;;;;6.11;60.23;101153.19;10222228;28;20466;-67
2021/03/10 18:54:44;;;;;;;32.15;20.58;;;;;;;6.22;60.06;101137.69;10232980;28;21115;-66
2021/03/10 18:59:41;;;;;;;30.95;20.17;;;;;;;6.22;60.14;101144.97;10207388;28;20049;-68
2021/03/10 19:04:39;;;;;;;32.47;19.17;;;;;;;6.14;60.01;101145.56;10216632;28;20992;-69
2021/03/10 19:09:36;;;;;;;35.13;20.55;;;;;;;6.15;60.87;101137.16;10231888;28;20045;-69
2021/03/10 19:14:33;;;;;;;33.15;20.67;;;;;;;6.14;60.69;101123.84;10218833;28;20056;-69
2021/03/10 19:19:29;;;;;;;33.22;20.77;;;;;;;6.06;60.69;101101.63;10215366;28;20053;-69
2021/03/10 19:24:26;;;;;;;35.58;21.08;;;;;;;5.99;61.65;101090.25;10214756;28;20058;-65
2021/03/10 19:29:23;;;;;;;36.45;22.15;;;;;;;5.89;61.50;101071.25;10229567;28;20053;-69
2021/03/10 19:34:18;;;;;;;38.55;21.95;;;;;;;5.95;61.55;101067.47;10218553;28;20108;-67
2021/03/10 19:39:15;;;;;;;33.03;20.45;;;;;;;5.94;62.01;101059.56;10216560;28;20126;-69
2021/03/10 19:44:11;;;;;;;37.13;20.63;;;;;;;5.88;62.28;101034.38;10209669;28;20053;-69
2021/03/10 19:49:07;;;;;;;33.28;20.98;;;;;;;5.85;62.28;101024.88;10212408;28;20049;-68
2021/03/10 19:54:04;;;;;;;35.50;22.08;;;;;;;5.86;62.73;101012.91;10220218;28;20418;-66
2021/03/10 19:59:00;;;;;;;35.70;21.20;;;;;;;5.84;63.08;100998.00;10211972;28;20404;-68
2021/03/10 20:03:57;;;;;;;39.90;22.13;;;;;;;5.81;62.90;100993.16;10215705;28;20045;-68
2021/03/10 20:08:52;;;;;;;34.58;20.75;;;;;;;5.83;63.29;100985.53;10206651;28;20076;-68
2021/03/10 20:13:49;;;;;;;37.00;22.27;;;;;;;5.79;63.32;100977.13;10205583;28;20049;-69
2021/03/10 20:18:45;;;;;;;36.17;21.77;;;;;;;5.86;63.39;100955.13;10205709;28;20057;-69
2021/03/10 20:23:41;;;;;;;36.13;21.67;;;;;;;5.83;63.10;100932.06;10201700;28;21914;-70
2021/03/10 20:28:37;;;;;;;39.67;21.85;;;;;;;5.83;63.89;100915.78;10225205;28;20086;-68
2021/03/10 20:33:33;;;;;;;36.88;22.25;;;;;;;5.81;64.15;100914.47;10210712;28;20054;-67
2021/03/10 20:38:29;;;;;;;35.28;20.67;;;;;;;5.83;63.97;100896.00;10223071;28;20522;-68
2021/03/10 20:43:25;;;;;;;35.40;20.98;;;;;;;5.74;64.50;100871.34;10212052;28;20106;-69
2021/03/10 20:48:22;;;;;;;37.72;21.80;;;;;;;5.83;64.19;100863.44;10225794;28;20659;-68
2021/03/10 20:53:25;;;;;;;;;;;;;;;5.76;64.54;100857.53;10221679;28;20134;-68
2021/03/10 20:58:22;;;;;;;38.17;21.38;;;;;;;5.73;64.88;100845.31;10215257;28;20007;-69
2021/03/10 21:03:19;;;;;;;39.65;21.27;;;;;;;5.79;64.35;100840.66;10204703;28;20050;-69
2021/03/10 21:08:15;;;;;;;35.60;20.30;;;;;;;5.68;65.09;100829.88;10220290;28;20049;-65
2021/03/10 21:13:11;;;;;;;35.90;20.73;;;;;;;5.76;64.82;100806.78;10210588;28;20081;-66
2021/03/10 21:18:08;;;;;;;40.42;21.75;;;;;;;5.84;65.02;100794.50;10216519;28;20123;-72
2021/03/10 21:23:05;;;;;;;34.95;19.75;;;;;;;5.84;65.29;100783.63;10209408;28;20127;-73
2021/03/10 21:28:05;;;;;;;34.28;19.48;;;;;;;5.85;64.74;100769.78;10229188;23;20088;-75
2021/03/10 21:33:01;;;;;;;38.03;21.95;;;;;;;5.85;64.87;100752.72;10254078;28;20049;-70
2021/03/10 21:37:57;;;;;;;36.65;20.25;;;;;;;5.88;64.74;100727.72;10244540;28;20054;-70
2021/03/10 21:42:53;;;;;;;35.53;20.55;;;;;;;5.90;65.14;100729.03;10208646;28;20045;-71
2021/03/10 21:48:25;;;;;;;35.25;20.48;;;;;;;5.84;64.67;100703.03;10274727;22;20041;-71
2021/03/10 21:53:39;;;;;;;37.90;20.90;;;;;;;5.87;65.27;100694.34;10242052;28;20631;-71
2021/03/10 21:58:35;;;;;;;38.00;21.25;;;;;;;5.85;65.10;100676.72;10227154;28;20049;-73
2021/03/10 22:03:31;;;;;;;34.85;19.63;;;;;;;5.86;65.45;100667.47;10204291;28;20531;-72
2021/03/10 22:08:27;;;;;;;37.25;20.10;;;;;;;5.85;65.44;100663.16;10206003;28;20427;-69
2021/03/10 22:13:23;;;;;;;36.40;20.52;;;;;;;5.87;65.03;100652.81;10213452;28;20041;-68
2021/03/10 22:18:19;;;;;;;36.50;20.25;;;;;;;5.87;65.33;100640.06;10213938;28;20095;-69
2021/03/10 22:23:15;;;;;;;35.10;18.85;;;;;;;5.86;65.20;100630.31;10207431;28;20119;-69
2021/03/10 22:28:11;;;;;;;37.70;20.52;;;;;;;5.88;65.61;100622.69;10205204;28;20049;-69
2021/03/10 22:33:07;;;;;;;32.40;17.65;;;;;;;5.90;65.67;100619.69;10208461;28;20063;-71
2021/03/10 22:38:03;;;;;;;32.80;18.90;;;;;;;5.92;65.35;100612.06;10202771;28;20140;-70